Weather observations for the past three days for
St. Louis, Spirit Of St. Louis Airport
Imperial (Metric)
Date Time (cdt) Wind (mph) Vis. (mi.) Weather Sky Cond. Temperature (ºF) Relative Humidity Wind Chill (°F) Heat Index (°F) Pressure Precipitation (in)
Air Dwpt 6 hour altimeter (in) sea level (mb) 1 hr 3 hr 6 hr
Max. Min.
05 17:54 N 5 10.00 A Few Clouds FEW085 96.1 69.1 41% 102 29.87 1010.4
05 16:54 Calm 10.00 A Few Clouds FEW045 93.9 75.9 56% 107 29.86 1010.3
05 15:54 W 7 10.00 Mostly Cloudy BKN055 93.9 71.1 48% 101 29.88 1010.7
05 12:54 S 3 10.00 Partly Cloudy SCT060 98.1 71.1 98.1 75.9 42% 106 29.92 1011.9
05 11:54 Calm 10.00 Fair CLR 97 73 46% 107 29.94 1012.7
05 10:54 SW 6 10.00 Fair CLR 93 73 52% 102 29.95 1012.9
05 09:54 W 6 10.00 A Few Clouds FEW085 89.1 72 57% 96 29.95 1013.1
05 08:54 W 8 10.00 Fair CLR 84.9 71.1 63% 90 29.95 1013.1
05 07:54 Calm 10.00 Fair CLR 81 72 74% 85 29.93 1012.6
05 06:54 Calm 10.00 Fair CLR 75.9 71.1 77 73 85% 76 29.92 1012.2
05 05:54 Calm 10.00 Fair CLR 73.9 72 94% 29.91 1011.7
05 04:54 Calm 10.00 Fair CLR 73.9 72 94% 29.91 1011.7
05 03:54 Calm 10.00 Fair CLR 73.9 72 94% 29.91 1011.8
05 02:54 Calm 10.00 Fair CLR 75.9 73 91% 76 29.92 1012.2
05 01:54 Calm 10.00 Partly Cloudy SCT085 75.9 73.9 94% 75 29.92 1012.2
05 00:54 Calm 10.00 Mostly Cloudy BKN085 75.9 73 89.1 75.9 91% 76 29.93 1012.5
04 23:54 Calm 10.00 Fair CLR 77 73.9 90% 78 29.93 1012.3
04 22:54 Calm 10.00 Fair CLR 78.1 73.9 87% 81 29.93 1012.4
04 21:54 Calm 10.00 Fair CLR 79 75 88% 83 29.93 1012.4
04 20:54 W 3 10.00 Fair CLR 79 73.9 85% 83 29.91 1011.8
04 19:54 Calm 10.00 Fair CLR 82.9 73.9 74% 89 29.9 1011.4
04 18:54 Calm 10.00 Fair CLR 89.1 78.1 100 89.1 70% 103 29.89 1011.3
04 17:54 W 5 10.00 Fair CLR 97 70 42% 104 29.89 1011.0
04 16:54 W 6 10.00 Fair CLR 98.1 69.1 39% 104 29.9 1011.3
04 15:54 Calm 10.00 A Few Clouds FEW070 99 66 34% 103 29.92 1012.0
04 14:54 SW 6 10.00 Partly Cloudy SCT065 98.1 68 38% 103 29.94 1012.7
04 13:54 W 9 10.00 Partly Cloudy SCT065 99 71.1 41% 107 29.96 1013.2
04 12:54 SW 6 10.00 Partly Cloudy SCT055 97 70 97 73 42% 104 29.97 1013.6
04 11:54 SW 10 10.00 Fair CLR 95 72 47% 103 29.98 1014.1
04 10:54 W 8 10.00 Fair CLR 91 72 54% 99 29.99 1014.4
04 09:54 SW 10 10.00 Fair CLR 88 72 59% 95 29.98 1014.2
04 08:54 SW 8 10.00 Fair CLR 84.9 71.1 63% 90 29.98 1014.2
04 07:54 Calm 10.00 Fair CLR 78.1 72 82% 80 29.98 1014.4
04 06:54 Calm 10.00 Fair CLR 72 70 84.9 72 94% 29.97 1014.1
04 05:54 Calm 10.00 Fair CLR 73.9 71.1 91% 29.95 1013.2
04 04:54 Calm 10.00 Fair CLR 77 70 79% 79 29.94 1012.8
04 03:54 Calm 10.00 Fair CLR 75.9 71.1 85% 76 29.94 1012.6
04 02:54 SW 3 10.00 Fair CLR 80.1 70 71% 83 29.92 1012.1
04 01:54 SW 3 10.00 Fair CLR 81 70 69% 84 29.93 1012.2
04 00:54 SW 5 10.00 Fair CLR 86 70 89.1 81 59% 91 29.93 1012.3
03 23:54 S 5 10.00 Fair CLR 86 71.1 61% 92 29.92 1011.9
03 22:54 S 5 10.00 Fair CLR 86 71.1 61% 92 29.92 1012.0
03 21:54 SE 3 10.00 Fair CLR 86 71.1 61% 92 29.92 1012.2
03 20:54 S 3 10.00 Fair CLR 82.9 73.9 74% 89 29.91 1011.7
03 19:54 Calm 10.00 Fair CLR 84 73.9 72% 91 29.9 1011.4
03 18:54 Calm 10.00 Fair CLR 89.1 78.1 99 89.1 70% 103 29.89 1011.0
03 17:54 W 3 10.00 A Few Clouds FEW060 97 70 42% 104 29.89 1010.9
03 16:54 W 6 10.00 A Few Clouds FEW075 98.1 68 38% 103 29.89 1010.9
03 15:54 Vrbl 6 10.00 A Few Clouds FEW065 98.1 66.9 36% 103 29.9 1011.4
03 14:54 S 6 10.00 A Few Clouds FEW065 98.1 69.1 39% 104 29.92 1011.9
03 13:54 SW 7 10.00 Fair CLR 97 69.1 40% 103 29.94 1012.7
03 12:54 SW 9 10.00 Fair CLR 96.1 71.1 96.1 73.9 44% 104 29.96 1013.3
03 11:54 SW 12 10.00 Fair CLR 93 71.1 49% 100 29.98 1013.9
03 10:54 SW 12 10.00 Fair CLR 91.9 72 52% 100 29.99 1014.2
03 09:54 W 7 10.00 Fair CLR 89.1 72 57% 96 29.99 1014.3
03 08:54 SW 9 10.00 Fair CLR 84.9 71.1 63% 90 29.98 1014.3
03 07:54 W 5 10.00 A Few Clouds FEW110 81 71.1 72% 85 29.98 1014.3
03 06:54 Calm 10.00 Fair CLR 73.9 70 84 73.9 88% 29.98 1014.2
03 05:54 Calm 10.00 Fair CLR 75 70 84% 75 29.97 1013.6
03 04:54 W 3 10.00 Fair CLR 75 70 84% 75 29.96 1013.4
03 03:54 W 3 10.00 Fair CLR 73.9 71.1 91% 29.96 1013.3
03 02:54 W 3 10.00 Fair CLR 75.9 72 88% 76 29.95 1013.2
03 01:54 Calm 10.00 Fair CLR 77 72 85% 78 29.96 1013.3
03 00:54 S 6 10.00 Fair CLR 84 70 88 81 63% 88 29.95 1013.1
02 23:54 S 5 10.00 Fair CLR 86 70 59% 91 29.95 1013.0
02 22:54 Calm 10.00 Fair CLR 86 70 59% 91 29.95 1013.1
02 21:54 S 5 10.00 Fair CLR 87.1 70 57% 92 29.95 1013.1
02 20:54 SW 5 10.00 Fair CLR 84 72 67% 90 29.94 1012.8
02 19:54 Calm 10.00 Fair CLR 82 73.9 77% 88 29.92 1012.3
02 18:54 Calm 9.00 Fair CLR 88 75.9 99 88 68% 99 29.92 1012.2
Date Time (cdt) Wind (mph) Vis. (mi.) Weather Sky Cond. Air Dwpt Max. Min. Relative Humidity Wind Chill (°F) Heat Index (°F) altimeter (in) sea level (mb) 1 hr 3 hr 6 hr
6 hour
Temperature (ºF) Pressure Precipitation (in)